sensor_id;sensor_type;location;lat;lon;timestamp;pressure;altitude;pressure_sealevel;temperature;humidity
28167;BME280;15455;53.376;-6.262;2023-04-20T00:00:42;102369.91;;;8.16;100.00
28167;BME280;15455;53.376;-6.262;2023-04-20T00:03:28;102367.50;;;8.21;100.00
28167;BME280;15455;53.376;-6.262;2023-04-20T00:06:13;102365.00;;;8.24;100.00
28167;BME280;15455;53.376;-6.262;2023-04-20T00:09:00;102364.09;;;8.23;100.00
28167;BME280;15455;53.376;-6.262;2023-04-20T00:11:45;102365.66;;;8.18;100.00
28167;BME280;15455;53.376;-6.262;2023-04-20T00:14:31;102349.88;;;8.12;100.00
28167;BME280;15455;53.376;-6.262;2023-04-20T00:17:16;102354.84;;;8.06;100.00
28167;BME280;15455;53.376;-6.262;2023-04-20T00:20:02;102351.94;;;7.96;100.00
28167;BME280;15455;53.376;-6.262;2023-04-20T00:22:48;102353.66;;;7.96;100.00
28167;BME280;15455;53.376;-6.262;2023-04-20T00:25:33;102339.72;;;7.94;100.00
28167;BME280;15455;53.376;-6.262;2023-04-20T00:28:18;102331.72;;;7.88;100.00
28167;BME280;15455;53.376;-6.262;2023-04-20T00:31:04;102329.00;;;7.85;100.00
28167;BME280;15455;53.376;-6.262;2023-04-20T00:33:50;102328.84;;;7.80;100.00
28167;BME280;15455;53.376;-6.262;2023-04-20T00:36:35;102337.44;;;7.77;100.00
28167;BME280;15455;53.376;-6.262;2023-04-20T00:39:21;102327.81;;;7.75;100.00
28167;BME280;15455;53.376;-6.262;2023-04-20T00:42:07;102335.44;;;7.70;100.00
28167;BME280;15455;53.376;-6.262;2023-04-20T00:44:52;102344.72;;;7.63;100.00
28167;BME280;15455;53.376;-6.262;2023-04-20T00:47:39;102336.78;;;7.59;100.00
28167;BME280;15455;53.376;-6.262;2023-04-20T00:50:25;102334.84;;;7.53;100.00
28167;BME280;15455;53.376;-6.262;2023-04-20T00:53:10;102331.94;;;7.44;100.00
28167;BME280;15455;53.376;-6.262;2023-04-20T00:55:57;102333.41;;;7.37;100.00
28167;BME280;15455;53.376;-6.262;2023-04-20T00:58:42;102336.88;;;7.38;100.00
28167;BME280;15455;53.376;-6.262;2023-04-20T01:01:28;102334.19;;;7.35;100.00
28167;BME280;15455;53.376;-6.262;2023-04-20T01:04:14;102338.19;;;7.26;100.00
28167;BME280;15455;53.376;-6.262;2023-04-20T01:07:01;102331.91;;;7.20;100.00
28167;BME280;15455;53.376;-6.262;2023-04-20T01:09:46;102326.78;;;7.21;100.00
28167;BME280;15455;53.376;-6.262;2023-04-20T01:12:32;102317.16;;;7.19;100.00
28167;BME280;15455;53.376;-6.262;2023-04-20T01:15:17;102319.03;;;7.23;100.00
28167;BME280;15455;53.376;-6.262;2023-04-20T01:18:03;102308.97;;;7.32;100.00
28167;BME280;15455;53.376;-6.262;2023-04-20T01:20:51;102306.25;;;7.29;100.00
28167;BME280;15455;53.376;-6.262;2023-04-20T01:23:37;102312.81;;;7.19;100.00
28167;BME280;15455;53.376;-6.262;2023-04-20T01:26:23;102311.69;;;7.11;100.00
28167;BME280;15455;53.376;-6.262;2023-04-20T01:29:10;102301.78;;;7.01;100.00
28167;BME280;15455;53.376;-6.262;2023-04-20T01:31:56;102293.16;;;7.02;100.00
28167;BME280;15455;53.376;-6.262;2023-04-20T01:34:42;102292.16;;;6.98;100.00
28167;BME280;15455;53.376;-6.262;2023-04-20T01:37:28;102282.59;;;6.97;100.00
28167;BME280;15455;53.376;-6.262;2023-04-20T01:40:14;102267.91;;;6.98;100.00
28167;BME280;15455;53.376;-6.262;2023-04-20T01:43:00;102269.69;;;6.99;100.00
28167;BME280;15455;53.376;-6.262;2023-04-20T01:45:46;102267.03;;;6.97;100.00
28167;BME280;15455;53.376;-6.262;2023-04-20T01:48:32;102273.78;;;6.92;100.00
28167;BME280;15455;53.376;-6.262;2023-04-20T01:51:18;102282.28;;;6.88;100.00
28167;BME280;15455;53.376;-6.262;2023-04-20T01:54:04;102286.28;;;6.80;100.00
28167;BME280;15455;53.376;-6.262;2023-04-20T01:56:51;102288.47;;;6.69;100.00
28167;BME280;15455;53.376;-6.262;2023-04-20T01:59:37;102294.50;;;6.68;100.00
28167;BME280;15455;53.376;-6.262;2023-04-20T02:02:23;102300.78;;;6.74;100.00
28167;BME280;15455;53.376;-6.262;2023-04-20T02:05:08;102307.75;;;6.75;100.00
28167;BME280;15455;53.376;-6.262;2023-04-20T02:07:54;102316.06;;;6.67;100.00
28167;BME280;15455;53.376;-6.262;2023-04-20T02:10:40;102313.28;;;6.62;100.00
28167;BME280;15455;53.376;-6.262;2023-04-20T02:13:26;102310.53;;;6.57;100.00
28167;BME280;15455;53.376;-6.262;2023-04-20T02:16:12;102312.28;;;6.58;100.00
28167;BME280;15455;53.376;-6.262;2023-04-20T02:19:00;102309.63;;;6.57;100.00
28167;BME280;15455;53.376;-6.262;2023-04-20T02:21:47;102303.63;;;6.58;100.00
28167;BME280;15455;53.376;-6.262;2023-04-20T02:24:32;102296.47;;;6.52;100.00
28167;BME280;15455;53.376;-6.262;2023-04-20T02:27:17;102288.81;;;6.55;100.00
28167;BME280;15455;53.376;-6.262;2023-04-20T02:30:03;102280.22;;;6.56;100.00
28167;BME280;15455;53.376;-6.262;2023-04-20T02:32:49;102279.13;;;6.51;100.00
28167;BME280;15455;53.376;-6.262;2023-04-20T02:35:35;102280.78;;;6.49;100.00
28167;BME280;15455;53.376;-6.262;2023-04-20T02:38:21;102271.25;;;6.48;100.00
28167;BME280;15455;53.376;-6.262;2023-04-20T02:41:06;102273.06;;;6.51;100.00
28167;BME280;15455;53.376;-6.262;2023-04-20T02:43:53;102286.22;;;6.55;100.00
28167;BME280;15455;53.376;-6.262;2023-04-20T02:46:38;102288.75;;;6.54;100.00
28167;BME280;15455;53.376;-6.262;2023-04-20T02:49:24;102291.00;;;6.45;100.00
28167;BME280;15455;53.376;-6.262;2023-04-20T02:52:10;102297.41;;;6.32;100.00
28167;BME280;15455;53.376;-6.262;2023-04-20T02:54:56;102305.88;;;6.28;100.00
28167;BME280;15455;53.376;-6.262;2023-04-20T02:57:42;102306.44;;;6.20;100.00
28167;BME280;15455;53.376;-6.262;2023-04-20T03:00:27;102321.88;;;6.17;100.00
28167;BME280;15455;53.376;-6.262;2023-04-20T03:03:20;102323.19;;;6.07;100.00
28167;BME280;15455;53.376;-6.262;2023-04-20T03:06:09;102330.66;;;6.00;100.00
28167;BME280;15455;53.376;-6.262;2023-04-20T03:08:54;102331.41;;;5.97;100.00
28167;BME280;15455;53.376;-6.262;2023-04-20T03:12:00;102325.19;;;5.94;100.00
28167;BME280;15455;53.376;-6.262;2023-04-20T03:15:04;102329.53;;;5.95;100.00
28167;BME280;15455;53.376;-6.262;2023-04-20T03:18:15;102328.91;;;5.99;100.00
28167;BME280;15455;53.376;-6.262;2023-04-20T03:21:00;102328.28;;;6.04;100.00
28167;BME280;15455;53.376;-6.262;2023-04-20T03:23:48;102329.34;;;6.10;100.00
28167;BME280;15455;53.376;-6.262;2023-04-20T03:26:34;102322.75;;;6.18;100.00
28167;BME280;15455;53.376;-6.262;2023-04-20T03:29:32;102315.81;;;6.17;100.00
28167;BME280;15455;53.376;-6.262;2023-04-20T03:32:18;102312.50;;;6.21;100.00
28167;BME280;15455;53.376;-6.262;2023-04-20T03:35:04;102323.66;;;6.18;100.00
28167;BME280;15455;53.376;-6.262;2023-04-20T03:37:50;102328.69;;;6.15;100.00
28167;BME280;15455;53.376;-6.262;2023-04-20T03:40:35;102332.13;;;6.14;100.00
28167;BME280;15455;53.376;-6.262;2023-04-20T03:43:21;102330.97;;;6.07;100.00
28167;BME280;15455;53.376;-6.262;2023-04-20T03:46:07;102325.44;;;5.98;100.00
28167;BME280;15455;53.376;-6.262;2023-04-20T03:48:52;102331.31;;;5.96;100.00
28167;BME280;15455;53.376;-6.262;2023-04-20T03:51:37;102320.72;;;5.89;100.00
28167;BME280;15455;53.376;-6.262;2023-04-20T03:54:23;102304.50;;;5.74;100.00
28167;BME280;15455;53.376;-6.262;2023-04-20T03:57:09;102305.38;;;5.74;100.00
28167;BME280;15455;53.376;-6.262;2023-04-20T03:59:55;102303.00;;;5.79;100.00
28167;BME280;15455;53.376;-6.262;2023-04-20T04:02:44;102303.81;;;5.78;100.00
28167;BME280;15455;53.376;-6.262;2023-04-20T04:05:31;102304.50;;;5.74;100.00
28167;BME280;15455;53.376;-6.262;2023-04-20T04:08:18;102303.63;;;5.73;100.00
28167;BME280;15455;53.376;-6.262;2023-04-20T04:11:03;102298.16;;;5.67;100.00
28167;BME280;15455;53.376;-6.262;2023-04-20T04:13:49;102304.13;;;5.65;100.00
28167;BME280;15455;53.376;-6.262;2023-04-20T04:16:35;102297.47;;;5.71;100.00
28167;BME280;15455;53.376;-6.262;2023-04-20T04:19:21;102298.09;;;5.66;100.00
28167;BME280;15455;53.376;-6.262;2023-04-20T04:22:07;102282.56;;;5.66;100.00
28167;BME280;15455;53.376;-6.262;2023-04-20T04:24:57;102290.75;;;5.75;100.00
28167;BME280;15455;53.376;-6.262;2023-04-20T04:27:44;102284.09;;;5.82;100.00
28167;BME280;15455;53.376;-6.262;2023-04-20T04:30:30;102282.59;;;5.87;100.00
28167;BME280;15455;53.376;-6.262;2023-04-20T04:33:16;102298.09;;;5.85;100.00
28167;BME280;15455;53.376;-6.262;2023-04-20T04:36:05;102293.84;;;5.87;100.00
28167;BME280;15455;53.376;-6.262;2023-04-20T04:38:52;102292.06;;;5.86;100.00
28167;BME280;15455;53.376;-6.262;2023-04-20T04:41:38;102291.81;;;5.80;100.00
28167;BME280;15455;53.376;-6.262;2023-04-20T04:44:34;102288.28;;;5.78;100.00
28167;BME280;15455;53.376;-6.262;2023-04-20T04:47:19;102297.66;;;5.76;100.00
28167;BME280;15455;53.376;-6.262;2023-04-20T04:50:06;102292.25;;;5.70;100.00
28167;BME280;15455;53.376;-6.262;2023-04-20T04:52:53;102279.41;;;5.73;100.00
28167;BME280;15455;53.376;-6.262;2023-04-20T04:55:39;102283.16;;;5.80;100.00
28167;BME280;15455;53.376;-6.262;2023-04-20T04:58:24;102282.59;;;5.87;100.00
28167;BME280;15455;53.376;-6.262;2023-04-20T05:01:10;102289.47;;;5.86;100.00
28167;BME280;15455;53.376;-6.262;2023-04-20T05:03:56;102284.56;;;5.93;100.00
28167;BME280;15455;53.376;-6.262;2023-04-20T05:06:41;102283.06;;;5.98;100.00
28167;BME280;15455;53.376;-6.262;2023-04-20T05:09:27;102294.00;;;5.92;100.00
28167;BME280;15455;53.376;-6.262;2023-04-20T05:12:17;102288.72;;;5.89;100.00
28167;BME280;15455;53.376;-6.262;2023-04-20T05:15:03;102296.19;;;5.81;100.00
28167;BME280;15455;53.376;-6.262;2023-04-20T05:17:49;102287.72;;;5.85;100.00
28167;BME280;15455;53.376;-6.262;2023-04-20T05:20:35;102282.59;;;5.87;100.00
28167;BME280;15455;53.376;-6.262;2023-04-20T05:23:20;102286.06;;;5.87;100.00
28167;BME280;15455;53.376;-6.262;2023-04-20T05:26:06;102280.38;;;5.96;100.00
28167;BME280;15455;53.376;-6.262;2023-04-20T05:28:51;102277.94;;;5.99;100.00
28167;BME280;15455;53.376;-6.262;2023-04-20T05:31:36;102285.13;;;6.06;100.00
28167;BME280;15455;53.376;-6.262;2023-04-20T05:34:21;102293.06;;;6.10;100.00
28167;BME280;15455;53.376;-6.262;2023-04-20T05:37:07;102292.28;;;6.12;100.00
28167;BME280;15455;53.376;-6.262;2023-04-20T05:39:53;102293.25;;;6.14;100.00
28167;BME280;15455;53.376;-6.262;2023-04-20T05:42:38;102297.47;;;6.12;100.00
28167;BME280;15455;53.376;-6.262;2023-04-20T05:45:23;102290.47;;;6.10;100.00
28167;BME280;15455;53.376;-6.262;2023-04-20T05:48:08;102293.88;;;6.08;100.00
28167;BME280;15455;53.376;-6.262;2023-04-20T05:50:54;102299.06;;;6.08;100.00
28167;BME280;15455;53.376;-6.262;2023-04-20T05:53:40;102289.69;;;6.12;100.00
28167;BME280;15455;53.376;-6.262;2023-04-20T05:56:25;102307.91;;;6.14;100.00
28167;BME280;15455;53.376;-6.262;2023-04-20T05:59:11;102302.06;;;6.19;100.00
28167;BME280;15455;53.376;-6.262;2023-04-20T06:01:56;102310.69;;;6.18;100.00
28167;BME280;15455;53.376;-6.262;2023-04-20T06:04:41;102308.22;;;6.21;100.00
28167;BME280;15455;53.376;-6.262;2023-04-20T06:07:27;102312.50;;;6.21;100.00
28167;BME280;15455;53.376;-6.262;2023-04-20T06:10:12;102314.41;;;6.25;100.00
28167;BME280;15455;53.376;-6.262;2023-04-20T06:12:58;102322.19;;;6.25;100.00
28167;BME280;15455;53.376;-6.262;2023-04-20T06:15:43;102324.84;;;6.26;100.00
28167;BME280;15455;53.376;-6.262;2023-04-20T06:18:28;102318.09;;;6.30;100.00
28167;BME280;15455;53.376;-6.262;2023-04-20T06:21:14;102310.31;;;6.30;100.00
28167;BME280;15455;53.376;-6.262;2023-04-20T06:24:00;102312.09;;;6.31;100.00
28167;BME280;15455;53.376;-6.262;2023-04-20T06:26:45;102304.59;;;6.39;100.00
28167;BME280;15455;53.376;-6.262;2023-04-20T06:29:30;102310.03;;;6.45;100.00
28167;BME280;15455;53.376;-6.262;2023-04-20T06:32:16;102311.00;;;6.47;100.00
28167;BME280;15455;53.376;-6.262;2023-04-20T06:35:01;102311.94;;;6.49;100.00
28167;BME280;15455;53.376;-6.262;2023-04-20T06:37:48;102304.31;;;6.54;100.00
28167;BME280;15455;53.376;-6.262;2023-04-20T06:40:33;102318.38;;;6.59;100.00
28167;BME280;15455;53.376;-6.262;2023-04-20T06:43:19;102312.47;;;6.63;100.00
28167;BME280;15455;53.376;-6.262;2023-04-20T06:46:04;102311.63;;;6.64;100.00
28167;BME280;15455;53.376;-6.262;2023-04-20T06:48:49;102309.88;;;6.63;100.00
28167;BME280;15455;53.376;-6.262;2023-04-20T06:51:35;102310.06;;;6.68;100.00
28167;BME280;15455;53.376;-6.262;2023-04-20T06:54:21;102320.84;;;6.78;100.00
28167;BME280;15455;53.376;-6.262;2023-04-20T06:57:06;102322.31;;;6.94;100.00
28167;BME280;15455;53.376;-6.262;2023-04-20T06:59:55;102327.81;;;7.26;100.00
28167;BME280;15455;53.376;-6.262;2023-04-20T07:02:41;102330.66;;;7.82;100.00
28167;BME280;15455;53.376;-6.262;2023-04-20T07:05:26;102325.25;;;8.28;100.00
28167;BME280;15455;53.376;-6.262;2023-04-20T07:08:12;102317.22;;;8.76;100.00
28167;BME280;15455;53.376;-6.262;2023-04-20T07:11:00;102313.63;;;9.00;100.00
28167;BME280;15455;53.376;-6.262;2023-04-20T07:13:45;102303.16;;;9.29;100.00
28167;BME280;15455;53.376;-6.262;2023-04-20T07:16:31;102289.50;;;9.07;100.00
28167;BME280;15455;53.376;-6.262;2023-04-20T07:19:16;102288.97;;;8.89;100.00
28167;BME280;15455;53.376;-6.262;2023-04-20T07:22:02;102291.84;;;8.69;100.00
28167;BME280;15455;53.376;-6.262;2023-04-20T07:24:47;102294.31;;;8.64;100.00
28167;BME280;15455;53.376;-6.262;2023-04-20T07:27:33;102293.94;;;8.52;100.00
28167;BME280;15455;53.376;-6.262;2023-04-20T07:30:19;102288.88;;;8.29;100.00
28167;BME280;15455;53.376;-6.262;2023-04-20T07:33:04;102302.63;;;8.25;100.00
28167;BME280;15455;53.376;-6.262;2023-04-20T07:35:51;102294.63;;;8.19;100.00
28167;BME280;15455;53.376;-6.262;2023-04-20T07:38:36;102291.03;;;8.15;100.00
28167;BME280;15455;53.376;-6.262;2023-04-20T07:41:21;102289.88;;;8.07;100.00
28167;BME280;15455;53.376;-6.262;2023-04-20T07:44:11;102295.88;;;8.05;100.00
28167;BME280;15455;53.376;-6.262;2023-04-20T07:46:56;102298.50;;;8.05;100.00
28167;BME280;15455;53.376;-6.262;2023-04-20T07:49:42;102306.34;;;8.06;100.00
28167;BME280;15455;53.376;-6.262;2023-04-20T07:52:28;102296.75;;;8.05;100.00
28167;BME280;15455;53.376;-6.262;2023-04-20T07:55:13;102288.19;;;8.08;100.00
28167;BME280;15455;53.376;-6.262;2023-04-20T07:57:59;102303.06;;;8.12;100.00
28167;BME280;15455;53.376;-6.262;2023-04-20T08:00:45;102308.25;;;8.12;100.00
28167;BME280;15455;53.376;-6.262;2023-04-20T08:03:31;102311.69;;;8.11;100.00
28167;BME280;15455;53.376;-6.262;2023-04-20T08:06:17;102308.34;;;8.15;100.00
28167;BME280;15455;53.376;-6.262;2023-04-20T08:09:03;102311.97;;;8.20;100.00
28167;BME280;15455;53.376;-6.262;2023-04-20T08:11:49;102320.91;;;8.28;100.00
28167;BME280;15455;53.376;-6.262;2023-04-20T08:14:35;102309.78;;;8.32;100.00
28167;BME280;15455;53.376;-6.262;2023-04-20T08:17:22;102309.91;;;8.37;100.00
28167;BME280;15455;53.376;-6.262;2023-04-20T08:20:07;102305.94;;;8.47;100.00
28167;BME280;15455;53.376;-6.262;2023-04-20T08:22:53;102325.19;;;8.54;100.00
28167;BME280;15455;53.376;-6.262;2023-04-20T08:25:38;102306.97;;;8.54;100.00
28167;BME280;15455;53.376;-6.262;2023-04-20T08:28:25;102310.53;;;8.56;100.00
28167;BME280;15455;53.376;-6.262;2023-04-20T08:31:18;102304.56;;;8.58;100.00
28167;BME280;15455;53.376;-6.262;2023-04-20T08:34:03;102303.81;;;8.62;100.00
28167;BME280;15455;53.376;-6.262;2023-04-20T08:36:49;102317.13;;;8.73;100.00
28167;BME280;15455;53.376;-6.262;2023-04-20T08:39:34;102308.59;;;8.77;100.00
28167;BME280;15455;53.376;-6.262;2023-04-20T08:42:20;102317.28;;;8.78;100.00
28167;BME280;15455;53.376;-6.262;2023-04-20T08:45:05;102319.22;;;8.85;100.00
28167;BME280;15455;53.376;-6.262;2023-04-20T08:47:51;102321.97;;;8.90;100.00
28167;BME280;15455;53.376;-6.262;2023-04-20T08:50:39;102324.78;;;8.96;100.00
28167;BME280;15455;53.376;-6.262;2023-04-20T08:53:25;102323.03;;;8.96;100.00
28167;BME280;15455;53.376;-6.262;2023-04-20T08:56:10;102305.97;;;9.06;100.00
28167;BME280;15455;53.376;-6.262;2023-04-20T08:58:55;102308.94;;;9.20;100.00
28167;BME280;15455;53.376;-6.262;2023-04-20T09:01:41;102304.69;;;9.22;100.00
28167;BME280;15455;53.376;-6.262;2023-04-20T09:04:27;102316.06;;;9.26;100.00
28167;BME280;15455;53.376;-6.262;2023-04-20T09:07:16;102306.53;;;9.26;100.00
28167;BME280;15455;53.376;-6.262;2023-04-20T09:10:02;102322.50;;;9.38;100.00
28167;BME280;15455;53.376;-6.262;2023-04-20T09:12:47;102306.00;;;9.38;100.00
28167;BME280;15455;53.376;-6.262;2023-04-20T09:15:33;102313.84;;;9.39;100.00
28167;BME280;15455;53.376;-6.262;2023-04-20T09:18:18;102309.38;;;9.35;100.00
28167;BME280;15455;53.376;-6.262;2023-04-20T09:21:07;102315.53;;;9.37;100.00
28167;BME280;15455;53.376;-6.262;2023-04-20T09:26:41;102321.69;;;9.73;100.00
28167;BME280;15455;53.376;-6.262;2023-04-20T09:29:27;102318.75;;;9.93;100.00
28167;BME280;15455;53.376;-6.262;2023-04-20T09:32:20;102312.88;;;10.01;100.00
28167;BME280;15455;53.376;-6.262;2023-04-20T09:35:06;102309.34;;;10.01;100.00
28167;BME280;15455;53.376;-6.262;2023-04-20T09:37:52;102307.88;;;10.11;100.00
28167;BME280;15455;53.376;-6.262;2023-04-20T09:40:38;102294.53;;;9.98;100.00
28167;BME280;15455;53.376;-6.262;2023-04-20T09:43:24;102306.88;;;10.05;100.00
28167;BME280;15455;53.376;-6.262;2023-04-20T09:46:11;102306.22;;;10.14;100.00
28167;BME280;15455;53.376;-6.262;2023-04-20T09:48:58;102306.34;;;10.19;100.00
28167;BME280;15455;53.376;-6.262;2023-04-20T09:51:44;102305.69;;;10.28;100.00
28167;BME280;15455;53.376;-6.262;2023-04-20T09:54:30;102305.94;;;10.38;100.00
28167;BME280;15455;53.376;-6.262;2023-04-20T09:57:15;102306.00;;;10.40;100.00
28167;BME280;15455;53.376;-6.262;2023-04-20T10:00:01;102292.00;;;10.36;100.00
28167;BME280;15455;53.376;-6.262;2023-04-20T10:02:49;102283.41;;;10.40;100.00
28167;BME280;15455;53.376;-6.262;2023-04-20T10:05:35;102293.16;;;10.49;100.00
28167;BME280;15455;53.376;-6.262;2023-04-20T10:08:23;102301.03;;;10.51;100.00
28167;BME280;15455;53.376;-6.262;2023-04-20T10:11:09;102303.66;;;10.52;100.00
28167;BME280;15455;53.376;-6.262;2023-04-20T10:13:54;102296.09;;;10.63;100.00
28167;BME280;15455;53.376;-6.262;2023-04-20T10:16:40;102296.22;;;10.69;100.00
28167;BME280;15455;53.376;-6.262;2023-04-20T10:19:43;102297.84;;;10.64;100.00
28167;BME280;15455;53.376;-6.262;2023-04-20T10:22:29;102283.81;;;10.59;100.00
28167;BME280;15455;53.376;-6.262;2023-04-20T10:25:22;102289.88;;;10.58;100.00
28167;BME280;15455;53.376;-6.262;2023-04-20T10:28:08;102282.75;;;10.51;100.00
28167;BME280;15455;53.376;-6.262;2023-04-20T10:30:55;102289.06;;;10.60;100.00
28167;BME280;15455;53.376;-6.262;2023-04-20T10:33:53;102289.22;;;10.68;100.00
28167;BME280;15455;53.376;-6.262;2023-04-20T10:36:38;102277.38;;;10.84;100.00
28167;BME280;15455;53.376;-6.262;2023-04-20T10:39:24;102281.63;;;10.79;100.00
28167;BME280;15455;53.376;-6.262;2023-04-20T10:42:11;102282.25;;;10.69;100.00
28167;BME280;15455;53.376;-6.262;2023-04-20T10:44:58;102284.06;;;10.71;100.00
28167;BME280;15455;53.376;-6.262;2023-04-20T10:47:43;102287.56;;;10.72;100.00
28167;BME280;15455;53.376;-6.262;2023-04-20T10:50:29;102277.28;;;10.80;100.00
28167;BME280;15455;53.376;-6.262;2023-04-20T10:53:18;102268.66;;;10.82;100.00
28167;BME280;15455;53.376;-6.262;2023-04-20T10:56:04;102274.09;;;10.94;100.00
28167;BME280;15455;53.376;-6.262;2023-04-20T10:58:50;102271.75;;;11.07;100.00
28167;BME280;15455;53.376;-6.262;2023-04-20T11:01:35;102274.44;;;11.11;100.00
28167;BME280;15455;53.376;-6.262;2023-04-20T11:04:30;102267.59;;;11.17;100.00
28167;BME280;15455;53.376;-6.262;2023-04-20T11:07:21;102275.47;;;11.18;100.00
28167;BME280;15455;53.376;-6.262;2023-04-20T11:10:06;102273.84;;;11.25;100.00
28167;BME280;15455;53.376;-6.262;2023-04-20T11:12:51;102266.28;;;11.39;100.00
28167;BME280;15455;53.376;-6.262;2023-04-20T11:15:37;102259.59;;;11.55;100.00
28167;BME280;15455;53.376;-6.262;2023-04-20T11:18:23;102261.59;;;11.71;100.00
28167;BME280;15455;53.376;-6.262;2023-04-20T11:21:08;102251.09;;;11.68;100.00
28167;BME280;15455;53.376;-6.262;2023-04-20T11:23:53;102252.03;;;11.72;100.00
28167;BME280;15455;53.376;-6.262;2023-04-20T11:26:39;102255.44;;;11.68;100.00
28167;BME280;15455;53.376;-6.262;2023-04-20T11:29:28;102254.72;;;11.27;100.00
28167;BME280;15455;53.376;-6.262;2023-04-20T11:32:16;102252.44;;;11.00;100.00
28167;BME280;15455;53.376;-6.262;2023-04-20T11:35:04;102253.22;;;10.96;100.00
28167;BME280;15455;53.376;-6.262;2023-04-20T11:37:51;102242.03;;;11.02;100.00
28167;BME280;15455;53.376;-6.262;2023-04-20T11:40:38;102241.28;;;11.07;100.00
28167;BME280;15455;53.376;-6.262;2023-04-20T11:43:23;102227.41;;;11.11;100.00
28167;BME280;15455;53.376;-6.262;2023-04-20T11:46:15;102237.97;;;11.18;100.00
28167;BME280;15455;53.376;-6.262;2023-04-20T11:49:02;102234.75;;;11.29;100.00
28167;BME280;15455;53.376;-6.262;2023-04-20T11:51:48;102242.75;;;11.39;100.00
28167;BME280;15455;53.376;-6.262;2023-04-20T11:54:34;102242.91;;;11.50;100.00
28167;BME280;15455;53.376;-6.262;2023-04-20T11:57:20;102224.84;;;11.62;100.00
28167;BME280;15455;53.376;-6.262;2023-04-20T12:00:08;102229.84;;;12.00;100.00
28167;BME280;15455;53.376;-6.262;2023-04-20T12:02:59;102226.66;;;12.20;100.00
28167;BME280;15455;53.376;-6.262;2023-04-20T12:05:46;102216.25;;;12.24;100.00
28167;BME280;15455;53.376;-6.262;2023-04-20T12:08:32;102223.28;;;12.27;100.00
28167;BME280;15455;53.376;-6.262;2023-04-20T12:11:18;102231.19;;;12.33;100.00
28167;BME280;15455;53.376;-6.262;2023-04-20T12:14:04;102231.34;;;12.42;100.00
28167;BME280;15455;53.376;-6.262;2023-04-20T12:16:49;102232.16;;;12.37;100.00
28167;BME280;15455;53.376;-6.262;2023-04-20T12:19:34;102227.78;;;12.39;100.00
28167;BME280;15455;53.376;-6.262;2023-04-20T12:22:19;102221.88;;;12.54;100.00
28167;BME280;15455;53.376;-6.262;2023-04-20T12:25:05;102221.44;;;12.85;100.00
28167;BME280;15455;53.376;-6.262;2023-04-20T12:27:51;102223.41;;;13.08;100.00
28167;BME280;15455;53.376;-6.262;2023-04-20T12:30:36;102215.75;;;13.27;100.00
28167;BME280;15455;53.376;-6.262;2023-04-20T12:33:21;102224.63;;;13.36;100.00
28167;BME280;15455;53.376;-6.262;2023-04-20T12:36:06;102227.31;;;13.44;100.00
28167;BME280;15455;53.376;-6.262;2023-04-20T12:38:52;102219.47;;;13.49;100.00
28167;BME280;15455;53.376;-6.262;2023-04-20T12:41:39;102209.78;;;13.40;100.00
28167;BME280;15455;53.376;-6.262;2023-04-20T12:44:25;102216.00;;;13.51;100.00
28167;BME280;15455;53.376;-6.262;2023-04-20T12:47:10;102220.38;;;13.51;100.00
28167;BME280;15455;53.376;-6.262;2023-04-20T12:49:58;102216.97;;;13.60;100.00
28167;BME280;15455;53.376;-6.262;2023-04-20T12:52:43;102218.72;;;13.59;100.00
28167;BME280;15455;53.376;-6.262;2023-04-20T12:55:28;102214.41;;;13.69;100.00
28167;BME280;15455;53.376;-6.262;2023-04-20T12:58:13;102218.81;;;13.73;100.00
28167;BME280;15455;53.376;-6.262;2023-04-20T13:01:00;102213.38;;;13.51;97.36
28167;BME280;15455;53.376;-6.262;2023-04-20T13:03:46;102211.72;;;13.63;100.00
28167;BME280;15455;53.376;-6.262;2023-04-20T13:06:32;102211.03;;;13.82;100.00
28167;BME280;15455;53.376;-6.262;2023-04-20T13:09:17;102209.31;;;13.92;100.00
28167;BME280;15455;53.376;-6.262;2023-04-20T13:12:02;102205.84;;;13.93;100.00
28167;BME280;15455;53.376;-6.262;2023-04-20T13:14:48;102205.03;;;14.05;100.00
28167;BME280;15455;53.376;-6.262;2023-04-20T13:17:33;102211.19;;;14.07;100.00
28167;BME280;15455;53.376;-6.262;2023-04-20T13:20:18;102205.06;;;14.06;100.00
28167;BME280;15455;53.376;-6.262;2023-04-20T13:23:04;102200.63;;;13.99;100.00
28167;BME280;15455;53.376;-6.262;2023-04-20T13:25:49;102199.78;;;14.02;100.00
28167;BME280;15455;53.376;-6.262;2023-04-20T13:28:35;102197.13;;;14.00;100.00
28167;BME280;15455;53.376;-6.262;2023-04-20T13:31:21;102195.28;;;13.82;100.00
28167;BME280;15455;53.376;-6.262;2023-04-20T13:34:07;102193.56;;;13.87;100.00
28167;BME280;15455;53.376;-6.262;2023-04-20T13:36:52;102194.22;;;13.62;100.00
28167;BME280;15455;53.376;-6.262;2023-04-20T13:39:37;102198.44;;;13.44;100.00
28167;BME280;15455;53.376;-6.262;2023-04-20T13:42:23;102185.44;;;13.52;100.00
28167;BME280;15455;53.376;-6.262;2023-04-20T13:45:08;102187.13;;;13.48;100.00
28167;BME280;15455;53.376;-6.262;2023-04-20T13:47:54;102181.81;;;13.41;100.00
28167;BME280;15455;53.376;-6.262;2023-04-20T13:50:39;102188.00;;;13.49;100.00
28167;BME280;15455;53.376;-6.262;2023-04-20T13:53:24;102176.66;;;13.50;100.00
28167;BME280;15455;53.376;-6.262;2023-04-20T13:56:10;102167.06;;;13.52;100.00
28167;BME280;15455;53.376;-6.262;2023-04-20T13:58:55;102163.66;;;13.62;100.00
28167;BME280;15455;53.376;-6.262;2023-04-20T14:01:40;102172.59;;;13.94;100.00
28167;BME280;15455;53.376;-6.262;2023-04-20T14:04:26;102161.22;;;13.96;100.00
28167;BME280;15455;53.376;-6.262;2023-04-20T14:07:12;102158.75;;;14.22;100.00
28167;BME280;15455;53.376;-6.262;2023-04-20T14:09:58;102163.16;;;14.25;100.00
28167;BME280;15455;53.376;-6.262;2023-04-20T14:12:46;102153.56;;;14.29;100.00
28167;BME280;15455;53.376;-6.262;2023-04-20T14:15:33;102150.09;;;14.37;99.20
28167;BME280;15455;53.376;-6.262;2023-04-20T14:18:18;102141.38;;;14.46;100.00